Flag Lama — V7QE5 — position and weather

sailwx.info

Track history (hours):
 
Tides and Currents Weather Stations Pressure Air Temp Water Temp Dewpoint Dewpoint Depression Visibility Wind Speed Wind Dir Waves Ship Positions

Flag Lama

Last reported at 2018-Feb-07 06:26 UTC. Time now 2018-Feb-24 18:03 UTC.
Position N 25°15' E 122°41'.
Warning: this ship's position is 17 days out of date.

Length 229 m; draft 12.3 m.

Type: Cargo ship. MMSI: 538006963.

Date/timePositionNaut miles runAvg speedWind from/ knotsBaromVisibWave heightAir tempDewpointWater temp
2018-Feb-07 06:26N 25°15' E 122°41'612.8
2018-Feb-07 05:59N 25°09' E 122°40'712.9
2018-Feb-07 05:29N 25°03' E 122°38'613.1
2018-Feb-07 05:01N 24°57' E 122°37'713.1
2018-Feb-07 04:30N 24°50' E 122°36'612.8
2018-Feb-07 04:00N 24°44' E 122°35'713.2
2018-Feb-07 03:30N 24°37' E 122°33'713.5
2018-Feb-07 03:00N 24°31' E 122°32'1313.1
2018-Feb-07 02:00N 24°18' E 122°29'713.3
2018-Feb-07 01:30N 24°11' E 122°28'713.3
2018-Feb-07 01:00N 24°05' E 122°26'713.4
2018-Feb-07 00:30N 23°58' E 122°25'613.0
2018-Feb-07 00:00N 23°52' E 122°24'612.5
2018-Feb-06 23:30N 23°46' E 122°22'  
2018-Jan-28 09:21S 19°05' E 113°44'512.6
2018-Jan-28 08:55S 19°10' E 113°43'512.5
2018-Jan-28 08:30S 19°15' E 113°42'713.0
2018-Jan-28 07:57S 19°22' E 113°40'  
Track history (hours):
 
Tides and Currents Weather Stations Pressure Air Temp Water Temp Dewpoint Dewpoint Depression Visibility Wind Speed Wind Dir Waves Ship Positions

Flag Lama

Last reported at 2018-Feb-07 06:26 UTC. Time now 2018-Feb-24 18:03 UTC.
Position N 25°15' E 122°41'.
Warning: this ship's position is 17 days out of date.

Length 229 m; draft 12.3 m.

Type: Cargo ship. MMSI: 538006963.

Date/timePositionNaut miles runAvg speedWind from/ knotsBaromVisibWave heightAir tempDewpointWater temp
2018-Feb-07 06:26N 25°15' E 122°41'612.8
2018-Feb-07 05:59N 25°09' E 122°40'712.9
2018-Feb-07 05:29N 25°03' E 122°38'613.1
2018-Feb-07 05:01N 24°57' E 122°37'713.1
2018-Feb-07 04:30N 24°50' E 122°36'612.8
2018-Feb-07 04:00N 24°44' E 122°35'713.2
2018-Feb-07 03:30N 24°37' E 122°33'713.5
2018-Feb-07 03:00N 24°31' E 122°32'1313.1
2018-Feb-07 02:00N 24°18' E 122°29'713.3
2018-Feb-07 01:30N 24°11' E 122°28'713.3
2018-Feb-07 01:00N 24°05' E 122°26'713.4
2018-Feb-07 00:30N 23°58' E 122°25'613.0
2018-Feb-07 00:00N 23°52' E 122°24'612.5
2018-Feb-06 23:30N 23°46' E 122°22'  
2018-Jan-28 09:21S 19°05' E 113°44'512.6
2018-Jan-28 08:55S 19°10' E 113°43'512.5
2018-Jan-28 08:30S 19°15' E 113°42'713.0
2018-Jan-28 07:57S 19°22' E 113°40'  

Dump ship's entire track history